sensor_id;sensor_type;location;lat;lon;timestamp;temperature;humidity
16521;DHT22;8373;48.110;11.522;2022-11-15T00:00:00;9.00;77.80
16521;DHT22;8373;48.110;11.522;2022-11-15T00:02:27;9.00;77.80
16521;DHT22;8373;48.110;11.522;2022-11-15T00:04:55;8.90;77.60
16521;DHT22;8373;48.110;11.522;2022-11-15T00:07:22;8.90;77.60
16521;DHT22;8373;48.110;11.522;2022-11-15T00:09:49;8.80;77.70
16521;DHT22;8373;48.110;11.522;2022-11-15T00:12:16;8.70;78.00
16521;DHT22;8373;48.110;11.522;2022-11-15T00:14:43;8.70;78.50
16521;DHT22;8373;48.110;11.522;2022-11-15T00:17:10;8.70;78.30
16521;DHT22;8373;48.110;11.522;2022-11-15T00:19:36;8.70;78.00
16521;DHT22;8373;48.110;11.522;2022-11-15T00:22:05;8.70;78.30
16521;DHT22;8373;48.110;11.522;2022-11-15T00:24:32;8.70;78.40
16521;DHT22;8373;48.110;11.522;2022-11-15T00:26:59;8.80;77.90
16521;DHT22;8373;48.110;11.522;2022-11-15T00:29:26;8.80;77.70
16521;DHT22;8373;48.110;11.522;2022-11-15T00:31:53;8.70;77.10
16521;DHT22;8373;48.110;11.522;2022-11-15T00:34:20;8.70;77.20
16521;DHT22;8373;48.110;11.522;2022-11-15T00:36:47;8.70;77.10
16521;DHT22;8373;48.110;11.522;2022-11-15T00:39:15;8.60;77.30
16521;DHT22;8373;48.110;11.522;2022-11-15T00:41:42;8.60;77.30
16521;DHT22;8373;48.110;11.522;2022-11-15T00:44:09;8.70;77.60
16521;DHT22;8373;48.110;11.522;2022-11-15T00:46:36;8.70;77.20
16521;DHT22;8373;48.110;11.522;2022-11-15T00:49:03;8.70;77.10
16521;DHT22;8373;48.110;11.522;2022-11-15T00:51:30;8.70;77.10
16521;DHT22;8373;48.110;11.522;2022-11-15T00:53:57;8.70;77.20
16521;DHT22;8373;48.110;11.522;2022-11-15T00:56:26;8.60;76.80
16521;DHT22;8373;48.110;11.522;2022-11-15T00:58:53;8.50;76.80
16521;DHT22;8373;48.110;11.522;2022-11-15T01:01:40;8.50;77.00
16521;DHT22;8373;48.110;11.522;2022-11-15T01:04:07;8.50;77.10
16521;DHT22;8373;48.110;11.522;2022-11-15T01:06:34;8.50;77.00
16521;DHT22;8373;48.110;11.522;2022-11-15T01:09:01;8.50;77.00
16521;DHT22;8373;48.110;11.522;2022-11-15T01:11:29;8.50;76.60
16521;DHT22;8373;48.110;11.522;2022-11-15T01:13:56;8.50;76.70
16521;DHT22;8373;48.110;11.522;2022-11-15T01:16:23;8.50;76.40
16521;DHT22;8373;48.110;11.522;2022-11-15T01:18:50;8.60;76.40
16521;DHT22;8373;48.110;11.522;2022-11-15T01:21:19;8.60;75.90
16521;DHT22;8373;48.110;11.522;2022-11-15T01:23:46;8.50;75.80
16521;DHT22;8373;48.110;11.522;2022-11-15T01:26:14;8.50;75.80
16521;DHT22;8373;48.110;11.522;2022-11-15T01:28:43;8.50;75.60
16521;DHT22;8373;48.110;11.522;2022-11-15T01:31:13;8.50;75.50
16521;DHT22;8373;48.110;11.522;2022-11-15T01:33:40;8.40;75.60
16521;DHT22;8373;48.110;11.522;2022-11-15T01:36:09;8.40;75.60
16521;DHT22;8373;48.110;11.522;2022-11-15T01:38:37;8.30;75.40
16521;DHT22;8373;48.110;11.522;2022-11-15T01:41:04;8.10;75.70
16521;DHT22;8373;48.110;11.522;2022-11-15T01:43:34;8.10;76.10
16521;DHT22;8373;48.110;11.522;2022-11-15T01:46:06;8.00;76.20
16521;DHT22;8373;48.110;11.522;2022-11-15T01:48:37;8.00;76.50
16521;DHT22;8373;48.110;11.522;2022-11-15T01:51:08;8.00;76.50
16521;DHT22;8373;48.110;11.522;2022-11-15T01:53:39;8.10;76.40
16521;DHT22;8373;48.110;11.522;2022-11-15T01:56:11;8.10;76.20
16521;DHT22;8373;48.110;11.522;2022-11-15T01:58:39;8.00;75.90
16521;DHT22;8373;48.110;11.522;2022-11-15T02:01:09;8.00;75.90
16521;DHT22;8373;48.110;11.522;2022-11-15T02:03:41;8.00;76.00
16521;DHT22;8373;48.110;11.522;2022-11-15T02:06:10;7.90;76.00
16521;DHT22;8373;48.110;11.522;2022-11-15T02:08:37;7.90;76.00
16521;DHT22;8373;48.110;11.522;2022-11-15T02:11:07;7.80;76.10
16521;DHT22;8373;48.110;11.522;2022-11-15T02:13:34;7.90;76.50
16521;DHT22;8373;48.110;11.522;2022-11-15T02:16:12;7.90;76.30
16521;DHT22;8373;48.110;11.522;2022-11-15T02:18:48;7.90;76.10
16521;DHT22;8373;48.110;11.522;2022-11-15T02:21:23;7.90;75.90
16521;DHT22;8373;48.110;11.522;2022-11-15T02:27:42;7.90;76.00
16521;DHT22;8373;48.110;11.522;2022-11-15T02:30:21;7.80;76.10
16521;DHT22;8373;48.110;11.522;2022-11-15T02:32:49;7.80;76.00
16521;DHT22;8373;48.110;11.522;2022-11-15T02:35:24;7.90;76.10
16521;DHT22;8373;48.110;11.522;2022-11-15T02:37:57;7.90;76.00
16521;DHT22;8373;48.110;11.522;2022-11-15T02:40:34;7.80;75.50
16521;DHT22;8373;48.110;11.522;2022-11-15T02:43:07;7.80;75.70
16521;DHT22;8373;48.110;11.522;2022-11-15T02:46:00;7.80;75.60
16521;DHT22;8373;48.110;11.522;2022-11-15T02:48:28;7.70;75.90
16521;DHT22;8373;48.110;11.522;2022-11-15T02:50:57;7.70;76.10
16521;DHT22;8373;48.110;11.522;2022-11-15T02:53:25;7.70;76.00
16521;DHT22;8373;48.110;11.522;2022-11-15T02:55:53;7.70;76.10
16521;DHT22;8373;48.110;11.522;2022-11-15T02:58:45;7.70;76.30
16521;DHT22;8373;48.110;11.522;2022-11-15T03:01:24;7.70;76.30
16521;DHT22;8373;48.110;11.522;2022-11-15T03:04:01;7.70;75.80
16521;DHT22;8373;48.110;11.522;2022-11-15T03:06:35;7.70;75.70
16521;DHT22;8373;48.110;11.522;2022-11-15T03:09:09;7.70;75.90
16521;DHT22;8373;48.110;11.522;2022-11-15T03:11:44;7.70;75.90
16521;DHT22;8373;48.110;11.522;2022-11-15T03:14:19;7.60;75.80
16521;DHT22;8373;48.110;11.522;2022-11-15T03:16:53;7.60;76.10
16521;DHT22;8373;48.110;11.522;2022-11-15T03:19:29;7.60;76.10
16521;DHT22;8373;48.110;11.522;2022-11-15T03:21:58;7.60;76.40
16521;DHT22;8373;48.110;11.522;2022-11-15T03:24:27;7.60;76.20
16521;DHT22;8373;48.110;11.522;2022-11-15T03:26:56;7.60;76.10
16521;DHT22;8373;48.110;11.522;2022-11-15T03:29:27;7.70;76.00
16521;DHT22;8373;48.110;11.522;2022-11-15T03:32:01;7.70;75.50
16521;DHT22;8373;48.110;11.522;2022-11-15T03:34:32;7.70;75.20
16521;DHT22;8373;48.110;11.522;2022-11-15T03:37:01;7.70;75.20
16521;DHT22;8373;48.110;11.522;2022-11-15T03:39:29;7.70;75.20
16521;DHT22;8373;48.110;11.522;2022-11-15T03:42:05;7.60;75.10
16521;DHT22;8373;48.110;11.522;2022-11-15T03:44:40;7.60;75.50
16521;DHT22;8373;48.110;11.522;2022-11-15T03:47:13;7.60;76.30
16521;DHT22;8373;48.110;11.522;2022-11-15T03:49:45;7.60;75.50
16521;DHT22;8373;48.110;11.522;2022-11-15T03:52:13;7.60;75.30
16521;DHT22;8373;48.110;11.522;2022-11-15T03:54:49;7.60;75.50
16521;DHT22;8373;48.110;11.522;2022-11-15T03:57:16;7.60;75.50
16521;DHT22;8373;48.110;11.522;2022-11-15T03:59:43;7.60;75.40
16521;DHT22;8373;48.110;11.522;2022-11-15T04:02:12;7.60;75.20
16521;DHT22;8373;48.110;11.522;2022-11-15T04:04:39;7.60;75.20
16521;DHT22;8373;48.110;11.522;2022-11-15T04:07:06;7.60;75.20
16521;DHT22;8373;48.110;11.522;2022-11-15T04:09:33;7.50;75.00
16521;DHT22;8373;48.110;11.522;2022-11-15T04:12:20;7.50;75.00
16521;DHT22;8373;48.110;11.522;2022-11-15T04:14:56;7.50;74.90
16521;DHT22;8373;48.110;11.522;2022-11-15T04:17:36;7.40;74.80
16521;DHT22;8373;48.110;11.522;2022-11-15T04:20:03;7.40;75.00
16521;DHT22;8373;48.110;11.522;2022-11-15T04:22:48;7.30;75.20
16521;DHT22;8373;48.110;11.522;2022-11-15T04:25:32;7.20;75.00
16521;DHT22;8373;48.110;11.522;2022-11-15T04:27:59;7.20;75.30
16521;DHT22;8373;48.110;11.522;2022-11-15T04:30:26;7.20;75.30
16521;DHT22;8373;48.110;11.522;2022-11-15T04:32:55;7.20;75.10
16521;DHT22;8373;48.110;11.522;2022-11-15T04:35:22;7.10;75.00
16521;DHT22;8373;48.110;11.522;2022-11-15T04:37:49;7.00;75.50
16521;DHT22;8373;48.110;11.522;2022-11-15T04:40:15;7.10;76.20
16521;DHT22;8373;48.110;11.522;2022-11-15T04:42:42;7.20;76.10
16521;DHT22;8373;48.110;11.522;2022-11-15T04:45:10;7.20;75.70
16521;DHT22;8373;48.110;11.522;2022-11-15T04:47:37;7.30;75.70
16521;DHT22;8373;48.110;11.522;2022-11-15T04:50:06;7.30;75.40
16521;DHT22;8373;48.110;11.522;2022-11-15T04:52:33;7.30;75.50
16521;DHT22;8373;48.110;11.522;2022-11-15T04:55:00;7.30;75.50
16521;DHT22;8373;48.110;11.522;2022-11-15T04:57:27;7.40;75.50
16521;DHT22;8373;48.110;11.522;2022-11-15T04:59:54;7.40;75.30
16521;DHT22;8373;48.110;11.522;2022-11-15T05:02:21;7.40;75.10
16521;DHT22;8373;48.110;11.522;2022-11-15T05:04:48;7.40;74.60
16521;DHT22;8373;48.110;11.522;2022-11-15T05:07:15;7.50;74.60
16521;DHT22;8373;48.110;11.522;2022-11-15T05:09:42;7.50;74.70
16521;DHT22;8373;48.110;11.522;2022-11-15T05:12:09;7.40;74.30
16521;DHT22;8373;48.110;11.522;2022-11-15T05:14:36;7.40;74.30
16521;DHT22;8373;48.110;11.522;2022-11-15T05:17:03;7.40;74.40
16521;DHT22;8373;48.110;11.522;2022-11-15T05:19:30;7.30;74.50
16521;DHT22;8373;48.110;11.522;2022-11-15T05:21:57;7.30;74.70
16521;DHT22;8373;48.110;11.522;2022-11-15T05:24:25;7.20;74.60
16521;DHT22;8373;48.110;11.522;2022-11-15T05:26:52;7.30;74.80
16521;DHT22;8373;48.110;11.522;2022-11-15T05:29:19;7.20;74.60
16521;DHT22;8373;48.110;11.522;2022-11-15T05:31:46;7.20;74.60
16521;DHT22;8373;48.110;11.522;2022-11-15T05:34:13;7.10;74.20
16521;DHT22;8373;48.110;11.522;2022-11-15T05:36:42;7.10;74.30
16521;DHT22;8373;48.110;11.522;2022-11-15T05:39:10;7.00;74.50
16521;DHT22;8373;48.110;11.522;2022-11-15T05:41:40;7.10;74.70
16521;DHT22;8373;48.110;11.522;2022-11-15T05:44:12;7.00;74.60
16521;DHT22;8373;48.110;11.522;2022-11-15T05:46:40;6.90;74.80
16521;DHT22;8373;48.110;11.522;2022-11-15T05:49:11;7.10;75.10
16521;DHT22;8373;48.110;11.522;2022-11-15T05:51:40;7.20;75.10
16521;DHT22;8373;48.110;11.522;2022-11-15T05:54:08;7.30;74.80
16521;DHT22;8373;48.110;11.522;2022-11-15T05:56:35;7.20;74.50
16521;DHT22;8373;48.110;11.522;2022-11-15T05:59:03;7.30;74.30
16521;DHT22;8373;48.110;11.522;2022-11-15T06:01:30;7.20;74.00
16521;DHT22;8373;48.110;11.522;2022-11-15T06:03:57;7.20;73.80
16521;DHT22;8373;48.110;11.522;2022-11-15T06:06:24;7.20;73.80
16521;DHT22;8373;48.110;11.522;2022-11-15T06:08:53;7.20;74.00
16521;DHT22;8373;48.110;11.522;2022-11-15T06:11:20;7.20;74.30
16521;DHT22;8373;48.110;11.522;2022-11-15T06:13:47;7.20;74.50
16521;DHT22;8373;48.110;11.522;2022-11-15T06:16:16;7.20;74.60
16521;DHT22;8373;48.110;11.522;2022-11-15T06:18:43;7.20;74.10
16521;DHT22;8373;48.110;11.522;2022-11-15T06:21:10;7.30;74.10
16521;DHT22;8373;48.110;11.522;2022-11-15T06:23:37;7.30;73.80
16521;DHT22;8373;48.110;11.522;2022-11-15T06:26:04;7.30;73.80
16521;DHT22;8373;48.110;11.522;2022-11-15T06:28:32;7.30;73.70
16521;DHT22;8373;48.110;11.522;2022-11-15T06:31:02;7.30;73.60
16521;DHT22;8373;48.110;11.522;2022-11-15T06:33:31;7.30;73.70
16521;DHT22;8373;48.110;11.522;2022-11-15T06:36:00;7.30;73.90
16521;DHT22;8373;48.110;11.522;2022-11-15T06:38:27;7.30;73.20
16521;DHT22;8373;48.110;11.522;2022-11-15T06:40:54;7.20;73.40
16521;DHT22;8373;48.110;11.522;2022-11-15T06:43:22;7.20;73.90
16521;DHT22;8373;48.110;11.522;2022-11-15T06:45:49;7.20;74.00
16521;DHT22;8373;48.110;11.522;2022-11-15T06:48:16;7.20;74.00
16521;DHT22;8373;48.110;11.522;2022-11-15T06:50:50;7.30;74.10
16521;DHT22;8373;48.110;11.522;2022-11-15T06:53:17;7.30;74.00
16521;DHT22;8373;48.110;11.522;2022-11-15T06:55:44;7.10;73.80
16521;DHT22;8373;48.110;11.522;2022-11-15T06:58:11;6.90;74.30
16521;DHT22;8373;48.110;11.522;2022-11-15T07:00:38;6.70;74.90
16521;DHT22;8373;48.110;11.522;2022-11-15T07:03:06;6.60;75.70
16521;DHT22;8373;48.110;11.522;2022-11-15T07:05:33;6.50;76.30
16521;DHT22;8373;48.110;11.522;2022-11-15T07:08:02;6.50;76.70
16521;DHT22;8373;48.110;11.522;2022-11-15T07:10:29;6.50;76.80
16521;DHT22;8373;48.110;11.522;2022-11-15T07:12:56;6.50;77.10
16521;DHT22;8373;48.110;11.522;2022-11-15T07:15:25;6.40;77.40
16521;DHT22;8373;48.110;11.522;2022-11-15T07:17:52;6.50;77.80
16521;DHT22;8373;48.110;11.522;2022-11-15T07:20:19;6.40;78.10
16521;DHT22;8373;48.110;11.522;2022-11-15T07:22:46;6.40;78.10
16521;DHT22;8373;48.110;11.522;2022-11-15T07:25:14;6.50;78.20
16521;DHT22;8373;48.110;11.522;2022-11-15T07:27:41;6.60;78.30
16521;DHT22;8373;48.110;11.522;2022-11-15T07:30:09;6.70;78.20
16521;DHT22;8373;48.110;11.522;2022-11-15T07:32:36;6.90;78.00
16521;DHT22;8373;48.110;11.522;2022-11-15T07:35:03;7.00;77.70
16521;DHT22;8373;48.110;11.522;2022-11-15T07:37:30;7.20;77.30
16521;DHT22;8373;48.110;11.522;2022-11-15T07:40:04;7.40;76.50
16521;DHT22;8373;48.110;11.522;2022-11-15T07:42:34;7.50;75.60
16521;DHT22;8373;48.110;11.522;2022-11-15T07:45:19;7.60;74.60
16521;DHT22;8373;48.110;11.522;2022-11-15T07:47:46;7.70;74.50
16521;DHT22;8373;48.110;11.522;2022-11-15T07:50:13;7.90;74.50
16521;DHT22;8373;48.110;11.522;2022-11-15T07:52:40;8.10;73.80
16521;DHT22;8373;48.110;11.522;2022-11-15T07:55:08;8.40;73.30
16521;DHT22;8373;48.110;11.522;2022-11-15T07:57:37;8.70;72.60
16521;DHT22;8373;48.110;11.522;2022-11-15T08:00:05;9.00;71.30
16521;DHT22;8373;48.110;11.522;2022-11-15T08:02:32;9.30;69.80
16521;DHT22;8373;48.110;11.522;2022-11-15T08:04:59;9.50;68.80
16521;DHT22;8373;48.110;11.522;2022-11-15T08:07:29;9.80;68.40
16521;DHT22;8373;48.110;11.522;2022-11-15T08:09:56;10.10;67.40
16521;DHT22;8373;48.110;11.522;2022-11-15T08:12:24;10.30;66.40
16521;DHT22;8373;48.110;11.522;2022-11-15T08:14:52;10.50;64.60
16521;DHT22;8373;48.110;11.522;2022-11-15T08:17:19;10.70;63.30
16521;DHT22;8373;48.110;11.522;2022-11-15T08:19:46;11.00;63.30
16521;DHT22;8373;48.110;11.522;2022-11-15T08:22:13;11.20;62.50
16521;DHT22;8373;48.110;11.522;2022-11-15T08:24:40;11.30;61.90
16521;DHT22;8373;48.110;11.522;2022-11-15T08:27:07;11.40;61.20
16521;DHT22;8373;48.110;11.522;2022-11-15T08:29:40;11.50;60.00
16521;DHT22;8373;48.110;11.522;2022-11-15T08:32:09;11.50;59.60
16521;DHT22;8373;48.110;11.522;2022-11-15T08:34:36;11.60;59.70
16521;DHT22;8373;48.110;11.522;2022-11-15T08:37:03;11.70;59.90
16521;DHT22;8373;48.110;11.522;2022-11-15T08:39:31;11.90;60.20
16521;DHT22;8373;48.110;11.522;2022-11-15T08:41:58;12.00;59.40
16521;DHT22;8373;48.110;11.522;2022-11-15T08:44:25;12.10;58.70
16521;DHT22;8373;48.110;11.522;2022-11-15T08:46:52;12.20;58.40
16521;DHT22;8373;48.110;11.522;2022-11-15T08:49:21;12.30;57.50
16521;DHT22;8373;48.110;11.522;2022-11-15T08:51:48;12.50;57.30
16521;DHT22;8373;48.110;11.522;2022-11-15T08:54:15;12.60;57.40
16521;DHT22;8373;48.110;11.522;2022-11-15T08:56:42;12.70;57.10
16521;DHT22;8373;48.110;11.522;2022-11-15T08:59:09;12.80;56.60
16521;DHT22;8373;48.110;11.522;2022-11-15T09:01:36;13.00;55.90
16521;DHT22;8373;48.110;11.522;2022-11-15T09:04:03;13.20;55.50
16521;DHT22;8373;48.110;11.522;2022-11-15T09:06:32;13.40;54.80
16521;DHT22;8373;48.110;11.522;2022-11-15T09:09:00;13.70;54.10
16521;DHT22;8373;48.110;11.522;2022-11-15T09:11:27;13.90;53.80
16521;DHT22;8373;48.110;11.522;2022-11-15T09:13:54;14.10;53.80
16521;DHT22;8373;48.110;11.522;2022-11-15T09:16:22;14.30;52.70
16521;DHT22;8373;48.110;11.522;2022-11-15T09:18:49;14.50;51.90
16521;DHT22;8373;48.110;11.522;2022-11-15T09:21:16;14.80;51.10
16521;DHT22;8373;48.110;11.522;2022-11-15T09:23:44;15.10;50.20
16521;DHT22;8373;48.110;11.522;2022-11-15T09:26:11;15.50;49.00
16521;DHT22;8373;48.110;11.522;2022-11-15T09:28:39;15.90;48.30
16521;DHT22;8373;48.110;11.522;2022-11-15T09:31:07;16.30;47.80
16521;DHT22;8373;48.110;11.522;2022-11-15T09:33:35;16.90;46.90
16521;DHT22;8373;48.110;11.522;2022-11-15T09:36:03;17.90;45.80
16521;DHT22;8373;48.110;11.522;2022-11-15T09:38:31;19.70;43.70
16521;DHT22;8373;48.110;11.522;2022-11-15T09:41:18;21.60;40.10
16521;DHT22;8373;48.110;11.522;2022-11-15T09:43:55;23.20;36.30
16521;DHT22;8373;48.110;11.522;2022-11-15T09:46:40;24.00;33.80
16521;DHT22;8373;48.110;11.522;2022-11-15T09:49:11;25.00;32.50
16521;DHT22;8373;48.110;11.522;2022-11-15T09:51:41;25.80;31.00
16521;DHT22;8373;48.110;11.522;2022-11-15T09:54:20;26.60;29.20
16521;DHT22;8373;48.110;11.522;2022-11-15T09:56:50;27.00;28.20
16521;DHT22;8373;48.110;11.522;2022-11-15T09:59:33;27.30;28.20
16521;DHT22;8373;48.110;11.522;2022-11-15T10:02:15;27.20;27.40
16521;DHT22;8373;48.110;11.522;2022-11-15T10:04:45;26.70;27.80
16521;DHT22;8373;48.110;11.522;2022-11-15T10:07:16;26.20;28.30
16521;DHT22;8373;48.110;11.522;2022-11-15T10:09:49;25.60;28.50
16521;DHT22;8373;48.110;11.522;2022-11-15T10:12:20;25.20;29.30
16521;DHT22;8373;48.110;11.522;2022-11-15T10:14:49;25.00;29.70
16521;DHT22;8373;48.110;11.522;2022-11-15T10:17:39;24.60;29.50
16521;DHT22;8373;48.110;11.522;2022-11-15T10:20:14;24.60;29.70
16521;DHT22;8373;48.110;11.522;2022-11-15T10:22:46;24.60;29.70
16521;DHT22;8373;48.110;11.522;2022-11-15T10:25:19;25.00;29.30
16521;DHT22;8373;48.110;11.522;2022-11-15T10:27:54;25.40;29.10
16521;DHT22;8373;48.110;11.522;2022-11-15T10:30:24;25.80;28.40
16521;DHT22;8373;48.110;11.522;2022-11-15T10:32:56;26.10;28.00
16521;DHT22;8373;48.110;11.522;2022-11-15T10:35:26;26.30;27.50
16521;DHT22;8373;48.110;11.522;2022-11-15T10:38:04;26.50;27.30
16521;DHT22;8373;48.110;11.522;2022-11-15T10:40:32;27.20;26.80
16521;DHT22;8373;48.110;11.522;2022-11-15T10:43:12;27.70;26.30
16521;DHT22;8373;48.110;11.522;2022-11-15T10:45:40;28.00;26.10
16521;DHT22;8373;48.110;11.522;2022-11-15T10:48:23;28.30;25.80
16521;DHT22;8373;48.110;11.522;2022-11-15T10:50:53;28.70;25.30
16521;DHT22;8373;48.110;11.522;2022-11-15T10:53:29;29.00;25.30
16521;DHT22;8373;48.110;11.522;2022-11-15T10:56:01;29.20;24.80
16521;DHT22;8373;48.110;11.522;2022-11-15T10:58:37;29.20;24.70
16521;DHT22;8373;48.110;11.522;2022-11-15T11:01:11;29.20;24.30
16521;DHT22;8373;48.110;11.522;2022-11-15T11:03:39;29.00;24.50
16521;DHT22;8373;48.110;11.522;2022-11-15T11:06:10;28.80;24.90
16521;DHT22;8373;48.110;11.522;2022-11-15T11:08:38;28.60;24.90
16521;DHT22;8373;48.110;11.522;2022-11-15T11:11:05;28.40;25.20
16521;DHT22;8373;48.110;11.522;2022-11-15T11:13:37;28.30;25.30
16521;DHT22;8373;48.110;11.522;2022-11-15T11:16:38;28.40;25.10
16521;DHT22;8373;48.110;11.522;2022-11-15T11:22:01;28.40;24.60
16521;DHT22;8373;48.110;11.522;2022-11-15T11:24:35;28.20;25.20
16521;DHT22;8373;48.110;11.522;2022-11-15T11:27:19;28.70;25.10
16521;DHT22;8373;48.110;11.522;2022-11-15T11:29:59;29.70;23.90
16521;DHT22;8373;48.110;11.522;2022-11-15T11:32:48;30.30;23.20
16521;DHT22;8373;48.110;11.522;2022-11-15T11:35:20;31.20;22.50
16521;DHT22;8373;48.110;11.522;2022-11-15T11:37:51;31.80;22.30
16521;DHT22;8373;48.110;11.522;2022-11-15T11:40:30;32.30;21.50
16521;DHT22;8373;48.110;11.522;2022-11-15T11:43:04;32.50;21.10
16521;DHT22;8373;48.110;11.522;2022-11-15T11:46:02;32.10;21.40
16521;DHT22;8373;48.110;11.522;2022-11-15T11:48:42;31.80;21.80
16521;DHT22;8373;48.110;11.522;2022-11-15T11:51:14;31.20;22.00
16521;DHT22;8373;48.110;11.522;2022-11-15T11:53:47;30.60;22.00
16521;DHT22;8373;48.110;11.522;2022-11-15T11:56:24;29.70;22.80
16521;DHT22;8373;48.110;11.522;2022-11-15T11:58:54;28.90;23.80
16521;DHT22;8373;48.110;11.522;2022-11-15T12:01:26;28.30;24.40
16521;DHT22;8373;48.110;11.522;2022-11-15T12:03:59;27.50;25.40
16521;DHT22;8373;48.110;11.522;2022-11-15T12:06:33;26.50;26.20
16521;DHT22;8373;48.110;11.522;2022-11-15T12:09:07;25.20;27.20
16521;DHT22;8373;48.110;11.522;2022-11-15T12:11:46;24.20;28.40
16521;DHT22;8373;48.110;11.522;2022-11-15T12:14:24;23.30;29.00
16521;DHT22;8373;48.110;11.522;2022-11-15T12:16:53;22.50;30.10
16521;DHT22;8373;48.110;11.522;2022-11-15T12:19:20;21.90;31.20
16521;DHT22;8373;48.110;11.522;2022-11-15T12:21:51;21.40;32.10
16521;DHT22;8373;48.110;11.522;2022-11-15T12:24:23;21.10;32.90
16521;DHT22;8373;48.110;11.522;2022-11-15T12:26:54;20.80;33.30
16521;DHT22;8373;48.110;11.522;2022-11-15T12:29:28;20.60;34.10
16521;DHT22;8373;48.110;11.522;2022-11-15T12:31:57;20.50;34.60
16521;DHT22;8373;48.110;11.522;2022-11-15T12:34:39;20.40;35.10
16521;DHT22;8373;48.110;11.522;2022-11-15T12:37:33;20.20;35.00
16521;DHT22;8373;48.110;11.522;2022-11-15T12:40:18;19.90;35.30
16521;DHT22;8373;48.110;11.522;2022-11-15T12:42:58;19.70;36.00
16521;DHT22;8373;48.110;11.522;2022-11-15T12:45:27;19.70;36.50
16521;DHT22;8373;48.110;11.522;2022-11-15T12:50:57;19.80;36.70
16521;DHT22;8373;48.110;11.522;2022-11-15T12:53:27;19.80;36.20
16521;DHT22;8373;48.110;11.522;2022-11-15T12:56:23;19.80;36.40
16521;DHT22;8373;48.110;11.522;2022-11-15T12:58:55;19.80;36.40
16521;DHT22;8373;48.110;11.522;2022-11-15T13:01:59;19.80;37.10
16521;DHT22;8373;48.110;11.522;2022-11-15T13:04:29;19.80;36.50
16521;DHT22;8373;48.110;11.522;2022-11-15T13:06:59;19.70;36.60
16521;DHT22;8373;48.110;11.522;2022-11-15T13:09:51;19.60;37.10
16521;DHT22;8373;48.110;11.522;2022-11-15T13:12:57;19.50;37.20
16521;DHT22;8373;48.110;11.522;2022-11-15T13:15:55;19.40;37.20
16521;DHT22;8373;48.110;11.522;2022-11-15T13:18:37;19.20;37.30
16521;DHT22;8373;48.110;11.522;2022-11-15T13:21:19;19.20;37.60
16521;DHT22;8373;48.110;11.522;2022-11-15T13:24:09;19.00;37.70
16521;DHT22;8373;48.110;11.522;2022-11-15T13:26:38;19.00;38.10
16521;DHT22;8373;48.110;11.522;2022-11-15T13:29:16;18.90;38.30
16521;DHT22;8373;48.110;11.522;2022-11-15T13:31:44;18.90;38.20
16521;DHT22;8373;48.110;11.522;2022-11-15T13:34:23;18.80;38.20
16521;DHT22;8373;48.110;11.522;2022-11-15T13:36:53;18.80;38.20
16521;DHT22;8373;48.110;11.522;2022-11-15T13:39:27;18.70;38.50
16521;DHT22;8373;48.110;11.522;2022-11-15T13:41:54;18.70;38.80
16521;DHT22;8373;48.110;11.522;2022-11-15T13:44:23;18.70;39.00
16521;DHT22;8373;48.110;11.522;2022-11-15T13:47:01;18.60;39.20
16521;DHT22;8373;48.110;11.522;2022-11-15T13:49:29;18.60;39.40
16521;DHT22;8373;48.110;11.522;2022-11-15T13:52:00;18.50;39.30
16521;DHT22;8373;48.110;11.522;2022-11-15T13:54:30;18.40;39.20
16521;DHT22;8373;48.110;11.522;2022-11-15T13:57:02;18.30;39.50
16521;DHT22;8373;48.110;11.522;2022-11-15T13:59:32;18.20;39.90
16521;DHT22;8373;48.110;11.522;2022-11-15T14:02:16;18.20;40.30
16521;DHT22;8373;48.110;11.522;2022-11-15T14:04:47;18.10;40.10
16521;DHT22;8373;48.110;11.522;2022-11-15T14:07:20;18.10;40.50
16521;DHT22;8373;48.110;11.522;2022-11-15T14:09:48;18.00;40.90
16521;DHT22;8373;48.110;11.522;2022-11-15T14:12:24;17.90;41.70
16521;DHT22;8373;48.110;11.522;2022-11-15T14:14:53;17.80;41.30
16521;DHT22;8373;48.110;11.522;2022-11-15T14:17:21;17.70;41.40
16521;DHT22;8373;48.110;11.522;2022-11-15T14:19:59;17.70;41.50
16521;DHT22;8373;48.110;11.522;2022-11-15T14:22:28;17.50;41.40
16521;DHT22;8373;48.110;11.522;2022-11-15T14:25:13;17.50;41.60
16521;DHT22;8373;48.110;11.522;2022-11-15T14:27:41;17.40;41.70
16521;DHT22;8373;48.110;11.522;2022-11-15T14:30:17;17.30;41.40
16521;DHT22;8373;48.110;11.522;2022-11-15T14:32:46;17.30;42.10
16521;DHT22;8373;48.110;11.522;2022-11-15T14:35:15;17.20;42.10
16521;DHT22;8373;48.110;11.522;2022-11-15T14:37:44;17.00;42.30
16521;DHT22;8373;48.110;11.522;2022-11-15T14:40:13;16.90;42.70
16521;DHT22;8373;48.110;11.522;2022-11-15T14:42:41;16.90;43.00
16521;DHT22;8373;48.110;11.522;2022-11-15T14:45:12;16.90;42.70
16521;DHT22;8373;48.110;11.522;2022-11-15T14:47:40;16.90;42.80
16521;DHT22;8373;48.110;11.522;2022-11-15T14:50:11;16.90;42.80
16521;DHT22;8373;48.110;11.522;2022-11-15T14:52:39;16.90;43.00
16521;DHT22;8373;48.110;11.522;2022-11-15T14:55:16;16.80;43.10
16521;DHT22;8373;48.110;11.522;2022-11-15T14:57:45;16.80;43.60
16521;DHT22;8373;48.110;11.522;2022-11-15T15:00:13;16.70;44.10
16521;DHT22;8373;48.110;11.522;2022-11-15T15:02:41;16.60;44.20
16521;DHT22;8373;48.110;11.522;2022-11-15T15:05:17;16.50;44.80
16521;DHT22;8373;48.110;11.522;2022-11-15T15:07:45;16.40;45.10
16521;DHT22;8373;48.110;11.522;2022-11-15T15:10:15;16.30;45.30
16521;DHT22;8373;48.110;11.522;2022-11-15T15:12:42;16.30;45.70
16521;DHT22;8373;48.110;11.522;2022-11-15T15:15:14;16.20;46.10
16521;DHT22;8373;48.110;11.522;2022-11-15T15:17:41;16.10;47.00
16521;DHT22;8373;48.110;11.522;2022-11-15T15:20:09;16.00;47.60
16521;DHT22;8373;48.110;11.522;2022-11-15T15:22:37;15.90;48.40
16521;DHT22;8373;48.110;11.522;2022-11-15T15:25:21;15.80;49.80
16521;DHT22;8373;48.110;11.522;2022-11-15T15:27:48;15.70;51.10
16521;DHT22;8373;48.110;11.522;2022-11-15T15:30:16;15.60;52.40
16521;DHT22;8373;48.110;11.522;2022-11-15T15:32:43;15.60;53.30
16521;DHT22;8373;48.110;11.522;2022-11-15T15:35:12;15.50;53.90
16521;DHT22;8373;48.110;11.522;2022-11-15T15:37:40;15.40;54.70
16521;DHT22;8373;48.110;11.522;2022-11-15T15:40:13;15.30;55.40
16521;DHT22;8373;48.110;11.522;2022-11-15T15:42:42;15.20;56.10
16521;DHT22;8373;48.110;11.522;2022-11-15T15:45:10;15.20;56.10
16521;DHT22;8373;48.110;11.522;2022-11-15T15:47:38;15.10;56.60
16521;DHT22;8373;48.110;11.522;2022-11-15T15:50:21;15.00;56.90
16521;DHT22;8373;48.110;11.522;2022-11-15T15:52:48;15.00;57.20
16521;DHT22;8373;48.110;11.522;2022-11-15T15:55:15;14.90;57.50
16521;DHT22;8373;48.110;11.522;2022-11-15T15:57:44;14.80;57.70
16521;DHT22;8373;48.110;11.522;2022-11-15T16:00:12;14.80;58.00
16521;DHT22;8373;48.110;11.522;2022-11-15T16:02:39;14.70;58.20
16521;DHT22;8373;48.110;11.522;2022-11-15T16:05:07;14.70;58.40
16521;DHT22;8373;48.110;11.522;2022-11-15T16:07:34;14.60;58.60
16521;DHT22;8373;48.110;11.522;2022-11-15T16:10:02;14.60;58.80